Time;durP1;ratioP1;P1;durP2;ratioP2;P2;SDS_P1;SDS_P2;PMS_P1;PMS_P2;Temp;Humidity;BMP_temperature;BMP_pressure;BME280_temperature;BME280_humidity;BME280_pressure;Samples;Min_cycle;Max_cycle;Signal;HPM_P1;HPM_P2
2022/09/18 00:01:59;;;;;;;6.28;2.00;;;;;;;-145.01;100.00;64805.59;5057539;28;20025;-54
2022/09/18 00:04:26;;;;;;;9.50;2.67;;;;;;;-145.01;100.00;64805.59;5050993;28;20033;-55
2022/09/18 00:06:51;;;;;;;7.40;2.55;;;;;;;-145.01;100.00;64805.59;5055621;28;20105;-53
2022/09/18 00:09:17;;;;;;;7.68;2.25;;;;;;;-145.01;100.00;64805.59;5057564;28;20487;-54
2022/09/18 00:11:44;;;;;;;5.85;2.28;;;;;;;-145.01;100.00;64805.59;5056548;28;20542;-54
2022/09/18 00:14:11;;;;;;;6.97;2.03;;;;;;;-145.01;100.00;64805.59;5062009;28;20466;-54
2022/09/18 00:16:37;;;;;;;5.03;2.10;;;;;;;-145.01;100.00;64805.59;5055634;28;20505;-54
2022/09/18 00:19:03;;;;;;;8.52;3.08;;;;;;;-145.01;100.00;64805.59;5049113;28;20055;-54
2022/09/18 00:21:30;;;;;;;6.18;2.38;;;;;;;-145.01;100.00;64805.59;5082818;28;20032;-55
2022/09/18 00:23:57;;;;;;;8.95;2.50;;;;;;;-145.01;100.00;64805.59;5056299;28;20103;-54
2022/09/18 00:26:24;;;;;;;6.53;2.65;;;;;;;-145.01;100.00;64805.59;5058875;28;20070;-54
2022/09/18 00:28:50;;;;;;;10.93;2.50;;;;;;;-145.01;100.00;64805.59;5056309;28;20340;-55
2022/09/18 00:31:20;;;;;;;6.97;2.38;;;;;;;-145.01;100.00;64805.59;5057893;28;20037;-55
2022/09/18 00:33:46;;;;;;;6.60;2.17;;;;;;;-145.01;100.00;64805.59;5054512;28;20033;-54
2022/09/18 00:36:15;;;;;;;8.77;2.95;;;;;;;-145.01;100.00;64805.59;5053586;28;20127;-54
2022/09/18 00:38:40;;;;;;;8.40;2.40;;;;;;;-145.01;100.00;64805.59;5054097;28;20028;-54
2022/09/18 00:41:10;;;;;;;10.00;3.05;;;;;;;-145.01;100.00;64805.59;5050090;28;20052;-54
2022/09/18 00:43:36;;;;;;;9.68;2.38;;;;;;;-145.01;100.00;64805.59;5059557;28;20043;-53
2022/09/18 00:46:07;;;;;;;6.30;2.42;;;;;;;-145.01;100.00;64805.59;5054971;28;20379;-55
2022/09/18 00:48:53;;;;;;;7.53;2.25;;;;;;;-145.01;100.00;64805.59;5051565;28;20359;-55
2022/09/18 00:51:18;;;;;;;8.02;2.25;;;;;;;-145.01;100.00;64805.59;5049540;28;20037;-55
2022/09/18 00:53:50;;;;;;;5.57;2.30;;;;;;;-145.01;100.00;64805.59;5049584;28;20094;-52
2022/09/18 00:56:16;;;;;;;7.43;2.63;;;;;;;-145.01;100.00;64805.59;5052872;28;20352;-54
2022/09/18 00:58:41;;;;;;;9.50;2.40;;;;;;;-145.01;100.00;64805.59;5055177;28;20025;-55
2022/09/18 01:01:07;;;;;;;7.97;2.20;;;;;;;-145.01;100.00;64805.59;5059872;28;20064;-54
2022/09/18 01:03:33;;;;;;;7.78;2.13;;;;;;;-145.01;100.00;64805.59;5054427;28;20031;-55
2022/09/18 01:06:18;;;;;;;7.68;2.88;;;;;;;-145.01;100.00;64805.59;5059052;28;20028;-55
2022/09/18 01:08:49;;;;;;;9.25;2.63;;;;;;;-145.01;100.00;64805.59;5087058;28;20021;-54
2022/09/18 01:11:33;;;;;;;8.45;2.65;;;;;;;-145.01;100.00;64805.59;5049927;28;20522;-54
2022/09/18 01:14:15;;;;;;;7.45;2.20;;;;;;;-145.01;100.00;64805.59;5057984;28;20055;-53
2022/09/18 01:17:06;;;;;;;5.70;2.05;;;;;;;-145.01;100.00;64805.59;5055398;28;20926;-54
2022/09/18 01:20:03;;;;;;;7.95;2.33;;;;;;;-145.01;100.00;64805.59;5049434;28;20071;-54
2022/09/18 01:22:44;;;;;;;6.03;2.83;;;;;;;-145.01;100.00;64805.59;5048349;28;20025;-54
2022/09/18 01:25:17;;;;;;;9.25;2.30;;;;;;;-145.01;100.00;64805.59;5057015;28;20037;-53
2022/09/18 01:28:21;;;;;;;5.55;1.98;;;;;;;-145.01;100.00;64805.59;5048326;28;20127;-56
2022/09/18 01:30:46;;;;;;;4.88;2.65;;;;;;;-145.01;100.00;64805.59;5035466;28;20041;-55
2022/09/18 01:33:22;;;;;;;7.63;2.30;;;;;;;-145.01;100.00;64805.59;5054717;28;20539;-53
2022/09/18 01:35:51;;;;;;;5.75;2.35;;;;;;;-145.01;100.00;64805.59;5052894;28;20126;-55
2022/09/18 01:38:53;;;;;;;8.85;2.25;;;;;;;-145.01;100.00;64805.59;5051374;28;20029;-55
2022/09/18 01:41:25;;;;;;;11.15;3.10;;;;;;;-145.01;100.00;64805.59;5025472;28;20092;-54
2022/09/18 01:43:53;;;;;;;4.80;1.80;;;;;;;-145.01;100.00;64805.59;5032261;28;20033;-55
2022/09/18 01:46:19;;;;;;;3.08;1.83;;;;;;;-145.01;100.00;64805.59;5048284;28;20033;-54
2022/09/18 01:49:09;;;;;;;5.18;2.17;;;;;;;-145.01;100.00;64805.59;5056130;28;20373;-55
2022/09/18 01:51:41;;;;;;;7.13;2.17;;;;;;;-145.01;100.00;64805.59;5082092;28;20088;-55
2022/09/18 01:54:14;;;;;;;6.05;1.92;;;;;;;-145.01;100.00;64805.59;5041266;28;20052;-55
2022/09/18 01:56:49;;;;;;;12.68;2.05;;;;;;;-145.01;100.00;64805.59;5050352;28;20104;-55
2022/09/18 01:59:45;;;;;;;4.63;2.10;;;;;;;-145.01;100.00;64805.59;5040410;28;20344;-55
2022/09/18 02:02:17;;;;;;;8.18;2.35;;;;;;;-145.01;100.00;64805.59;5049287;28;20045;-55
2022/09/18 02:04:43;;;;;;;6.05;1.83;;;;;;;-145.01;100.00;64805.59;5047555;28;20163;-55
2022/09/18 02:07:50;;;;;;;5.32;2.05;;;;;;;-145.01;100.00;64805.59;5057000;28;20067;-54
2022/09/18 02:10:17;;;;;;;5.35;1.92;;;;;;;-145.01;100.00;64805.59;5028187;28;20037;-55
2022/09/18 02:12:42;;;;;;;12.25;1.80;;;;;;;-145.01;100.00;64805.59;5093921;28;20017;-55
2022/09/18 02:15:09;;;;;;;7.10;2.05;;;;;;;-145.01;100.00;64805.59;5039068;28;20067;-55
2022/09/18 02:17:46;;;;;;;4.65;1.80;;;;;;;-145.01;100.00;64805.59;5053348;28;20074;-54
2022/09/18 02:20:18;;;;;;;4.93;1.73;;;;;;;-145.01;100.00;64805.59;5053158;28;20033;-55
2022/09/18 02:22:43;;;;;;;5.97;2.00;;;;;;;-145.01;100.00;64805.59;5055151;28;20035;-54
2022/09/18 02:25:09;;;;;;;4.82;1.83;;;;;;;-145.01;100.00;64805.59;5057308;28;20033;-54
2022/09/18 02:27:35;;;;;;;5.70;2.00;;;;;;;-145.01;100.00;64805.59;5039165;28;20031;-54
2022/09/18 02:30:04;;;;;;;4.47;1.50;;;;;;;-145.01;100.00;64805.59;5056350;28;20020;-55
2022/09/18 02:32:29;;;;;;;3.78;1.60;;;;;;;-145.01;100.00;64805.59;5035548;28;20039;-55
2022/09/18 02:34:55;;;;;;;2.78;1.63;;;;;;;-145.01;100.00;64805.59;5052219;28;20017;-54
2022/09/18 02:37:29;;;;;;;4.40;1.80;;;;;;;-145.01;100.00;64805.59;5052626;28;20094;-54
2022/09/18 02:40:05;;;;;;;6.47;1.63;;;;;;;-145.01;100.00;64805.59;5066550;28;20021;-55
2022/09/18 02:42:57;;;;;;;4.68;1.95;;;;;;;-145.01;100.00;64805.59;5057495;28;20033;-54
2022/09/18 02:45:26;;;;;;;4.15;1.88;;;;;;;-145.01;100.00;64805.59;5051554;28;20021;-55
2022/09/18 02:47:58;;;;;;;5.07;1.75;;;;;;;-145.01;100.00;64805.59;5052498;28;20117;-54
2022/09/18 02:50:38;;;;;;;6.18;1.80;;;;;;;-145.01;100.00;64805.59;5055691;28;20032;-55
2022/09/18 02:53:08;;;;;;;6.10;1.83;;;;;;;-145.01;100.00;64805.59;5057771;28;20071;-55
2022/09/18 02:55:46;;;;;;;4.93;1.88;;;;;;;-145.01;100.00;64805.59;5051348;28;20070;-54
2022/09/18 02:58:16;;;;;;;5.85;1.67;;;;;;;-145.01;100.00;64805.59;5057163;28;20086;-55
2022/09/18 03:00:43;;;;;;;5.45;1.80;;;;;;;-145.01;100.00;64805.59;5044769;28;20024;-55
2022/09/18 03:03:12;;;;;;;4.63;1.73;;;;;;;-145.01;100.00;64805.59;5058538;28;20040;-54
2022/09/18 03:05:38;;;;;;;11.25;1.77;;;;;;;-145.01;100.00;64805.59;5023722;28;20044;-55
2022/09/18 03:08:03;;;;;;;6.97;1.83;;;;;;;-145.01;100.00;64805.59;5052709;28;20379;-55
2022/09/18 03:10:29;;;;;;;5.07;1.80;;;;;;;-145.01;100.00;64805.59;5058006;28;20489;-53
2022/09/18 03:12:54;;;;;;;7.20;1.88;;;;;;;-145.01;100.00;64805.59;5059179;28;20021;-54
2022/09/18 03:15:21;;;;;;;3.42;1.73;;;;;;;-145.01;100.00;64805.59;5055516;28;20040;-54
2022/09/18 03:17:47;;;;;;;7.05;1.83;;;;;;;-145.01;100.00;64805.59;5054086;28;20025;-54
2022/09/18 03:20:12;;;;;;;4.32;1.63;;;;;;;-145.01;100.00;64805.59;5057067;28;20088;-54
2022/09/18 03:22:37;;;;;;;5.38;1.80;;;;;;;-145.01;100.00;64805.59;5055883;28;20037;-54
2022/09/18 03:25:03;;;;;;;6.80;1.65;;;;;;;-145.01;100.00;64805.59;5052037;28;20391;-55
2022/09/18 03:27:29;;;;;;;10.25;2.00;;;;;;;-145.01;100.00;64805.59;5051944;28;20120;-54
2022/09/18 03:29:54;;;;;;;4.50;1.70;;;;;;;-145.01;100.00;64805.59;5051993;28;20020;-54
2022/09/18 03:32:19;;;;;;;3.15;1.52;;;;;;;-145.01;100.00;64805.59;5052054;28;20411;-55
2022/09/18 03:34:45;;;;;;;3.88;1.88;;;;;;;-145.01;100.00;64805.59;5051419;28;20090;-55
2022/09/18 03:37:10;;;;;;;5.50;1.83;;;;;;;-145.01;100.00;64805.59;5051591;28;20033;-55
2022/09/18 03:39:36;;;;;;;3.47;1.73;;;;;;;-145.01;100.00;64805.59;5063539;28;20037;-54
2022/09/18 03:42:01;;;;;;;4.40;1.70;;;;;;;-145.01;100.00;64805.59;5058454;28;20108;-54
2022/09/18 03:44:27;;;;;;;7.22;1.95;;;;;;;-145.01;100.00;64805.59;5062408;28;20613;-55
2022/09/18 03:46:52;;;;;;;5.90;1.75;;;;;;;-145.01;100.00;64805.59;5058496;28;20029;-54
2022/09/18 03:49:18;;;;;;;6.38;2.08;;;;;;;-145.01;100.00;64805.59;5051123;28;20491;-54
2022/09/18 03:51:43;;;;;;;5.90;1.60;;;;;;;-145.01;100.00;64805.59;5052404;28;20099;-55
2022/09/18 03:54:08;;;;;;;5.70;1.80;;;;;;;-145.01;100.00;64805.59;5057742;28;20037;-54
2022/09/18 03:56:37;;;;;;;7.90;1.92;;;;;;;-145.01;100.00;64805.59;5060979;28;20051;-54
2022/09/18 03:59:02;;;;;;;3.90;1.70;;;;;;;-145.01;100.00;64805.59;5059903;28;20024;-54
2022/09/18 04:01:28;;;;;;;3.25;1.80;;;;;;;-145.01;100.00;64805.59;5053925;28;20459;-55
2022/09/18 04:03:53;;;;;;;4.78;1.80;;;;;;;-145.01;100.00;64805.59;5050661;28;20396;-54
2022/09/18 04:06:19;;;;;;;4.82;1.88;;;;;;;-145.01;100.00;64805.59;5057944;28;20451;-53
2022/09/18 04:08:44;;;;;;;4.78;1.60;;;;;;;-145.01;100.00;64805.59;5051193;28;20074;-52
2022/09/18 04:11:09;;;;;;;3.58;1.85;;;;;;;-145.01;100.00;64805.59;5060067;28;20340;-55
2022/09/18 04:13:35;;;;;;;3.60;1.70;;;;;;;-145.01;100.00;64805.59;5052702;28;20604;-54
2022/09/18 04:16:01;;;;;;;4.13;1.88;;;;;;;-145.01;100.00;64805.59;5054542;28;20463;-54
2022/09/18 04:18:26;;;;;;;4.88;1.98;;;;;;;-145.01;100.00;64805.59;5051112;28;20044;-55
2022/09/18 04:20:54;;;;;;;5.65;1.70;;;;;;;-145.01;100.00;64805.59;5050465;28;20021;-55
2022/09/18 04:23:19;;;;;;;4.15;1.48;;;;;;;-145.01;100.00;64805.59;5051021;28;20028;-54
2022/09/18 04:25:45;;;;;;;5.35;1.88;;;;;;;-145.01;100.00;64805.59;5055156;28;20220;-55
2022/09/18 04:28:11;;;;;;;5.07;1.90;;;;;;;-145.01;100.00;64805.59;5054223;28;20422;-52
2022/09/18 04:30:36;;;;;;;4.22;1.70;;;;;;;-145.01;100.00;64805.59;5050279;28;20056;-54
2022/09/18 04:33:02;;;;;;;4.30;1.73;;;;;;;-145.01;100.00;64805.59;5051053;28;20017;-55
2022/09/18 04:35:28;;;;;;;5.70;2.00;;;;;;;-145.01;100.00;64805.59;5054472;28;20029;-55
2022/09/18 04:37:53;;;;;;;3.60;1.70;;;;;;;-145.01;100.00;64805.59;5086821;28;20415;-54
2022/09/18 04:40:19;;;;;;;3.70;1.55;;;;;;;-145.01;100.00;64805.59;5051076;28;20438;-54
2022/09/18 04:42:45;;;;;;;4.88;1.73;;;;;;;-145.01;100.00;64805.59;5055058;28;20063;-55
2022/09/18 04:45:10;;;;;;;6.95;2.30;;;;;;;-145.01;100.00;64805.59;5061172;28;20483;-54
2022/09/18 04:47:36;;;;;;;5.93;1.50;;;;;;;-145.01;100.00;64805.59;5055139;28;20021;-54
2022/09/18 04:50:03;;;;;;;5.93;1.67;;;;;;;-145.01;100.00;64805.59;5055352;28;20041;-54
2022/09/18 04:52:28;;;;;;;4.18;1.50;;;;;;;-145.01;100.00;64805.59;5050626;28;20082;-54
2022/09/18 04:54:53;;;;;;;4.93;1.50;;;;;;;-145.01;100.00;64805.59;5055379;28;20022;-54
2022/09/18 04:57:19;;;;;;;3.10;1.33;;;;;;;-145.01;100.00;64805.59;5050813;28;20029;-53
2022/09/18 04:59:44;;;;;;;4.75;1.50;;;;;;;-145.01;100.00;64805.59;5057578;28;20091;-55
2022/09/18 05:02:10;;;;;;;2.83;1.40;;;;;;;-145.01;100.00;64805.59;5056798;28;20032;-52
2022/09/18 05:04:35;;;;;;;2.83;1.70;;;;;;;-145.01;100.00;64805.59;5054111;28;20116;-54
2022/09/18 05:07:02;;;;;;;1.95;1.38;;;;;;;-145.01;100.00;64805.59;5051804;28;20056;-55
2022/09/18 05:09:27;;;;;;;2.88;1.23;;;;;;;-145.01;100.00;64805.59;5050282;28;20483;-54
2022/09/18 05:11:53;;;;;;;1.35;1.08;;;;;;;-145.01;100.00;64805.59;5050192;28;20052;-55
2022/09/18 05:14:19;;;;;;;1.42;1.10;;;;;;;-145.01;100.00;64805.59;5050202;28;20032;-55
2022/09/18 05:16:44;;;;;;;2.03;1.40;;;;;;;-145.01;100.00;64805.59;5050394;28;20037;-55
2022/09/18 05:19:10;;;;;;;2.47;1.40;;;;;;;-145.01;100.00;64805.59;5082639;28;20095;-54
2022/09/18 05:21:35;;;;;;;1.40;1.30;;;;;;;-145.01;100.00;64805.59;5058204;28;20021;-53
2022/09/18 05:24:01;;;;;;;1.90;1.35;;;;;;;-145.01;100.00;64805.59;5052811;28;20084;-55
2022/09/18 05:26:29;;;;;;;2.90;1.23;;;;;;;-145.01;100.00;64805.59;5059801;28;20033;-54
2022/09/18 05:28:54;;;;;;;5.25;1.67;;;;;;;-145.01;100.00;64805.59;5056782;28;20029;-55
2022/09/18 05:31:20;;;;;;;5.40;1.40;;;;;;;-145.01;100.00;64805.59;5054847;28;20036;-54
2022/09/18 05:33:45;;;;;;;3.58;1.30;;;;;;;-145.01;100.00;64805.59;5053150;28;20364;-54
2022/09/18 05:36:10;;;;;;;5.07;1.77;;;;;;;-145.01;100.00;64805.59;5053904;28;20024;-54
2022/09/18 05:38:36;;;;;;;3.33;1.40;;;;;;;-145.01;100.00;64805.59;5055875;28;20601;-54
2022/09/18 05:41:02;;;;;;;2.38;1.42;;;;;;;-145.01;100.00;64805.59;5054034;28;20028;-53
2022/09/18 05:43:27;;;;;;;3.97;1.52;;;;;;;-145.01;100.00;64805.59;5060425;28;20070;-54
2022/09/18 05:45:53;;;;;;;3.85;1.35;;;;;;;-145.01;100.00;64805.59;5048603;28;20032;-54
2022/09/18 05:48:18;;;;;;;3.13;1.58;;;;;;;-145.01;100.00;64805.59;5065526;28;20028;-53
2022/09/18 05:50:44;;;;;;;2.53;1.20;;;;;;;-145.01;100.00;64805.59;5054985;28;20037;-55
2022/09/18 05:53:10;;;;;;;1.65;1.30;;;;;;;-145.01;100.00;64805.59;5049759;28;20016;-54
2022/09/18 05:55:35;;;;;;;5.72;1.80;;;;;;;-145.01;100.00;64805.59;5060142;28;20448;-54
2022/09/18 05:58:03;;;;;;;3.47;1.35;;;;;;;-145.01;100.00;64805.59;5053128;28;20033;-55
2022/09/18 06:00:30;;;;;;;2.53;1.50;;;;;;;-145.01;100.00;64805.59;5049670;28;20024;-55
2022/09/18 06:03:00;;;;;;;4.10;1.75;;;;;;;-145.01;100.00;64805.59;5049764;28;20099;-54
2022/09/18 06:05:26;;;;;;;1.38;1.20;;;;;;;-145.01;100.00;64805.59;5053560;28;20483;-53
2022/09/18 06:07:51;;;;;;;7.15;1.70;;;;;;;-145.01;100.00;64805.59;5049485;28;20041;-54
2022/09/18 06:10:17;;;;;;;1.33;1.10;;;;;;;-145.01;100.00;64805.59;5053730;28;20514;-54
2022/09/18 06:12:43;;;;;;;2.20;1.30;;;;;;;-145.01;100.00;64805.59;5053252;28;20093;-55
2022/09/18 06:15:09;;;;;;;2.92;1.33;;;;;;;-145.01;100.00;64805.59;5049636;28;20574;-55
2022/09/18 06:17:34;;;;;;;2.83;1.10;;;;;;;-145.01;100.00;64805.59;5052754;28;20048;-54
2022/09/18 06:20:00;;;;;;;3.63;1.30;;;;;;;-145.01;100.00;64805.59;5056156;28;20027;-54
2022/09/18 06:22:26;;;;;;;3.47;1.48;;;;;;;-145.01;100.00;64805.59;5052665;28;20495;-54
2022/09/18 06:24:51;;;;;;;2.75;1.30;;;;;;;-145.01;100.00;64805.59;5056513;28;20048;-55
2022/09/18 06:27:16;;;;;;;3.53;1.60;;;;;;;-145.01;100.00;64805.59;5054086;28;20408;-55
2022/09/18 06:29:42;;;;;;;2.55;1.52;;;;;;;-145.01;100.00;64805.59;5059836;28;20052;-54
2022/09/18 06:32:08;;;;;;;4.07;1.50;;;;;;;-145.01;100.00;64805.59;5049230;28;20029;-55
2022/09/18 06:34:33;;;;;;;3.03;1.30;;;;;;;-145.01;100.00;64805.59;5052627;28;20021;-54
2022/09/18 06:36:59;;;;;;;7.47;1.60;;;;;;;-145.01;100.00;64805.59;5049315;28;20032;-54
2022/09/18 06:39:24;;;;;;;3.38;1.55;;;;;;;-145.01;100.00;64805.59;5055206;28;20029;-56
2022/09/18 06:41:50;;;;;;;3.90;1.30;;;;;;;-145.01;100.00;64805.59;5054772;28;20029;-56
2022/09/18 06:44:15;;;;;;;2.30;1.52;;;;;;;-145.01;100.00;64805.59;5048846;28;20360;-55
2022/09/18 06:46:40;;;;;;;8.68;1.67;;;;;;;-145.01;100.00;64805.59;5052726;28;20387;-55
2022/09/18 06:49:06;;;;;;;2.17;1.23;;;;;;;-145.01;100.00;64805.59;5053167;28;20406;-55
2022/09/18 06:51:31;;;;;;;4.57;1.40;;;;;;;-145.01;100.00;64805.59;5054556;28;20032;-54
2022/09/18 06:53:57;;;;;;;3.42;1.45;;;;;;;-145.01;100.00;64805.59;5053088;28;20297;-54
2022/09/18 06:56:22;;;;;;;2.47;1.33;;;;;;;-145.01;100.00;64805.59;5053673;28;20443;-56
2022/09/18 06:58:50;;;;;;;2.15;1.50;;;;;;;-145.01;100.00;64805.59;5057133;28;21700;-54
2022/09/18 07:01:15;;;;;;;3.88;1.70;;;;;;;-145.01;100.00;64805.59;5051651;28;20383;-55
2022/09/18 07:03:41;;;;;;;2.25;1.60;;;;;;;-145.01;100.00;64805.59;5055151;28;20054;-55
2022/09/18 07:06:08;;;;;;;1.58;1.30;;;;;;;-145.01;100.00;64805.59;5057734;28;20044;-54
2022/09/18 07:08:34;;;;;;;2.70;1.58;;;;;;;-145.01;100.00;64805.59;5059745;28;20371;-56
2022/09/18 07:11:00;;;;;;;2.95;1.60;;;;;;;-145.01;100.00;64805.59;5058979;28;20021;-55
2022/09/18 07:13:29;;;;;;;2.08;1.27;;;;;;;-145.01;100.00;64805.59;5057993;28;20045;-55
2022/09/18 07:15:54;;;;;;;3.30;1.58;;;;;;;-145.01;100.00;64805.59;5035249;28;20059;-54
2022/09/18 07:18:20;;;;;;;4.35;1.50;;;;;;;-145.01;100.00;64805.59;5052573;28;20048;-54
2022/09/18 07:20:45;;;;;;;3.92;2.00;;;;;;;-145.01;100.00;64805.59;5056669;28;20332;-51
2022/09/18 07:23:11;;;;;;;3.08;1.70;;;;;;;-145.01;100.00;64805.59;5058618;28;20025;-54
2022/09/18 07:25:36;;;;;;;4.22;1.77;;;;;;;-145.01;100.00;64805.59;5058408;28;20028;-54
2022/09/18 07:28:08;;;;;;;3.50;2.05;;;;;;;-145.01;100.00;64805.59;5058387;28;20025;-54
2022/09/18 07:30:34;;;;;;;3.17;1.80;;;;;;;-145.01;100.00;64805.59;5054606;28;20040;-54
2022/09/18 07:33:01;;;;;;;4.60;2.30;;;;;;;-145.01;100.00;64805.59;5052178;28;20382;-55
2022/09/18 07:35:27;;;;;;;6.60;2.13;;;;;;;-145.01;100.00;64805.59;5055550;28;20054;-55
2022/09/18 07:37:56;;;;;;;4.85;2.70;;;;;;;-145.01;100.00;64805.59;5062367;28;20107;-55
2022/09/18 07:40:22;;;;;;;7.67;2.33;;;;;;;-145.01;100.00;64805.59;5060231;28;20024;-55
2022/09/18 07:42:47;;;;;;;5.63;2.28;;;;;;;-145.01;100.00;64805.59;5052632;28;20029;-55
2022/09/18 07:45:12;;;;;;;5.72;2.70;;;;;;;-145.01;100.00;64805.59;5057375;28;20472;-54
2022/09/18 07:47:38;;;;;;;7.78;2.92;;;;;;;-145.01;100.00;64805.59;5051525;28;20025;-55
2022/09/18 07:50:04;;;;;;;11.43;2.92;;;;;;;-145.01;100.00;64805.59;5055995;28;20021;-53
2022/09/18 07:52:30;;;;;;;7.40;3.00;;;;;;;-145.01;100.00;64805.59;5050424;28;20025;-55
2022/09/18 07:54:55;;;;;;;7.07;2.88;;;;;;;-145.01;100.00;64805.59;5054928;28;20040;-55
2022/09/18 07:57:21;;;;;;;5.82;2.80;;;;;;;-145.01;100.00;64805.59;5055439;28;20025;-54
2022/09/18 07:59:46;;;;;;;9.27;3.35;;;;;;;-145.01;100.00;64805.59;5052007;28;20024;-54
2022/09/18 08:02:12;;;;;;;7.57;3.50;;;;;;;-145.01;100.00;64805.59;5051863;28;20040;-55
2022/09/18 08:04:37;;;;;;;6.70;3.13;;;;;;;-145.01;100.00;64805.59;5061791;28;20483;-54
2022/09/18 08:07:03;;;;;;;6.32;3.65;;;;;;;-145.01;100.00;64805.59;5057558;28;20376;-54
2022/09/18 08:09:28;;;;;;;7.22;3.25;;;;;;;-145.01;100.00;64805.59;5057751;28;20032;-54
2022/09/18 08:11:54;;;;;;;6.38;3.17;;;;;;;-145.01;100.00;64805.59;5061843;28;20021;-54
2022/09/18 08:14:19;;;;;;;9.27;3.45;;;;;;;-145.01;100.00;64805.59;5053670;28;20058;-54
2022/09/18 08:16:45;;;;;;;10.30;3.40;;;;;;;-145.01;100.00;64805.59;5052584;28;20036;-53
2022/09/18 08:19:11;;;;;;;8.82;3.13;;;;;;;-145.01;100.00;64805.59;5062014;28;20389;-54
2022/09/18 08:21:37;;;;;;;8.73;2.90;;;;;;;-145.01;100.00;64805.59;5064094;28;20048;-55
2022/09/18 08:24:02;;;;;;;7.32;2.90;;;;;;;-145.01;100.00;64805.59;5058003;28;20353;-56
2022/09/18 08:26:28;;;;;;;7.15;2.95;;;;;;;-145.01;100.00;64805.59;5056578;28;20021;-55
2022/09/18 08:28:53;;;;;;;11.15;2.88;;;;;;;-145.01;100.00;64805.59;5057462;28;20021;-56
2022/09/18 08:31:19;;;;;;;5.60;2.90;;;;;;;-145.01;100.00;64805.59;5050593;28;20488;-56
2022/09/18 08:33:44;;;;;;;7.35;2.63;;;;;;;-145.01;100.00;64805.59;5051153;28;20021;-56
2022/09/18 08:36:09;;;;;;;5.05;2.75;;;;;;;-145.01;100.00;64805.59;5059823;28;20033;-56
2022/09/18 08:38:35;;;;;;;5.97;2.30;;;;;;;-145.01;100.00;64805.59;5050520;28;20063;-55
2022/09/18 08:41:25;;;;;;;5.65;2.28;;;;;;;-145.01;100.00;64805.59;5049000;28;20021;-54
2022/09/18 08:44:10;;;;;;;5.45;2.10;;;;;;;-145.01;100.00;64805.59;5051986;28;20513;-56
2022/09/18 08:46:51;;;;;;;4.82;2.10;;;;;;;-145.01;100.00;64805.59;5058077;28;20032;-56
2022/09/18 08:49:38;;;;;;;4.60;2.45;;;;;;;-145.01;100.00;64805.59;5048566;28;20060;-56
2022/09/18 08:52:08;;;;;;;6.90;2.30;;;;;;;-145.01;100.00;64805.59;5059644;28;20028;-56
2022/09/18 08:54:55;;;;;;;7.28;2.22;;;;;;;-145.01;100.00;64805.59;5055800;28;20040;-55
2022/09/18 08:57:40;;;;;;;4.65;2.13;;;;;;;-145.01;100.00;64805.59;5053944;28;20032;-55
2022/09/18 09:00:11;;;;;;;8.00;2.30;;;;;;;-145.01;100.00;64805.59;5051932;28;20032;-55
2022/09/18 09:02:38;;;;;;;5.55;2.20;;;;;;;-145.01;100.00;64805.59;5054058;28;20456;-55
2022/09/18 09:05:14;;;;;;;4.07;2.15;;;;;;;-145.01;100.00;64805.59;5059417;28;20072;-55
2022/09/18 09:07:52;;;;;;;7.55;2.22;;;;;;;-145.01;100.00;64805.59;5050831;28;20029;-54
2022/09/18 09:10:30;;;;;;;9.27;2.60;;;;;;;-145.01;100.00;64805.59;5052634;28;20116;-55
2022/09/18 09:13:14;;;;;;;10.18;2.40;;;;;;;-145.01;100.00;64805.59;5054093;28;20028;-54
2022/09/18 09:15:47;;;;;;;7.20;2.20;;;;;;;-145.01;100.00;64805.59;5052787;28;20532;-55
2022/09/18 09:18:16;;;;;;;6.30;1.95;;;;;;;-145.01;100.00;64805.59;5052963;28;20364;-54
2022/09/18 09:20:53;;;;;;;5.10;1.90;;;;;;;-145.01;100.00;64805.59;5049704;28;20052;-54
2022/09/18 09:23:40;;;;;;;3.45;2.00;;;;;;;-145.01;100.00;64805.59;5049676;28;20032;-54
2022/09/18 09:26:14;;;;;;;8.38;2.15;;;;;;;-145.01;100.00;64805.59;5054154;28;20063;-55
2022/09/18 09:28:58;;;;;;;7.57;2.33;;;;;;;-145.01;100.00;64805.59;5070110;28;20020;-55
2022/09/18 09:31:24;;;;;;;3.72;2.13;;;;;;;-145.01;100.00;64805.59;5040312;28;20065;-55
2022/09/18 09:33:57;;;;;;;7.10;2.80;;;;;;;-145.01;100.00;64805.59;5047897;28;20029;-56
2022/09/18 09:36:25;;;;;;;5.72;1.90;;;;;;;-145.01;100.00;64805.59;5048008;28;20025;-55
2022/09/18 09:39:20;;;;;;;6.55;1.80;;;;;;;-145.01;100.00;64805.59;5052696;28;20021;-56
2022/09/18 09:41:50;;;;;;;3.72;2.08;;;;;;;-145.01;100.00;64805.59;5054875;28;20036;-55
2022/09/18 09:44:42;;;;;;;;;;;;;;;-145.01;100.00;64805.59;5048142;28;20479;-55
2022/09/18 09:47:27;;;;;;;4.32;2.10;;;;;;;-145.01;100.00;64805.59;5056931;28;19927;-55
2022/09/18 09:50:04;;;;;;;2.88;2.00;;;;;;;-145.01;100.00;64805.59;5054515;28;20052;-55
2022/09/18 09:52:30;;;;;;;5.20;2.20;;;;;;;-145.01;100.00;64805.59;5051319;28;20039;-55
2022/09/18 09:54:58;;;;;;;5.05;2.15;;;;;;;-145.01;100.00;64805.59;5037885;28;20025;-55
2022/09/18 09:57:43;;;;;;;5.13;2.20;;;;;;;-145.01;100.00;64805.59;5060352;28;20568;-55
2022/09/18 10:00:19;;;;;;;5.10;2.30;;;;;;;-145.01;100.00;64805.59;5064224;28;20102;-54
2022/09/18 10:03:06;;;;;;;4.43;2.00;;;;;;;-145.01;100.00;64805.59;5053767;28;20017;-54
2022/09/18 10:05:34;;;;;;;5.53;2.50;;;;;;;-145.01;100.00;64805.59;5053720;28;20101;-54
2022/09/18 10:08:08;;;;;;;5.90;2.38;;;;;;;-145.01;100.00;64805.59;5055242;28;20045;-55
2022/09/18 10:10:40;;;;;;;4.82;2.70;;;;;;;-145.01;100.00;64805.59;5031515;28;20025;-55
2022/09/18 10:13:10;;;;;;;6.13;2.50;;;;;;;-145.01;100.00;64805.59;5048034;28;20117;-54
2022/09/18 10:15:38;;;;;;;5.20;2.38;;;;;;;-145.01;100.00;64805.59;5048005;28;20033;-55
2022/09/18 10:18:04;;;;;;;7.97;2.80;;;;;;;-145.01;100.00;64805.59;5048022;28;20041;-53
2022/09/18 10:20:30;;;;;;;8.68;2.80;;;;;;;-145.01;100.00;64805.59;5043871;28;20021;-55
2022/09/18 10:23:02;;;;;;;4.97;2.97;;;;;;;-145.01;100.00;64805.59;5064912;28;20043;-55
2022/09/18 10:25:58;;;;;;;13.05;3.10;;;;;;;-145.01;100.00;64805.59;5050147;28;20103;-55
2022/09/18 10:28:28;;;;;;;7.38;3.30;;;;;;;-145.01;100.00;64805.59;5047811;28;20095;-54
2022/09/18 10:30:55;;;;;;;8.55;3.85;;;;;;;-145.01;100.00;64805.59;5090350;28;20029;-53
2022/09/18 10:33:37;;;;;;;7.93;3.83;;;;;;;-145.01;100.00;64805.59;5056873;28;20383;-54
2022/09/18 10:36:37;;;;;;;10.38;3.90;;;;;;;-145.01;100.00;64805.59;5057231;28;20049;-54
2022/09/18 10:39:30;;;;;;;8.83;3.70;;;;;;;-145.01;100.00;64805.59;5053227;28;20475;-53
2022/09/18 10:41:59;;;;;;;6.20;3.65;;;;;;;-145.01;100.00;64805.59;5058325;28;20269;-55
2022/09/18 10:44:42;;;;;;;7.30;3.70;;;;;;;-145.01;100.00;64805.59;5030014;28;20028;-54
2022/09/18 10:47:19;;;;;;;5.55;3.33;;;;;;;-145.01;100.00;64805.59;5061218;28;20482;-55
2022/09/18 10:49:55;;;;;;;7.13;3.53;;;;;;;-145.01;100.00;64805.59;5056804;28;20085;-54
2022/09/18 10:52:30;;;;;;;11.95;3.63;;;;;;;-145.01;100.00;64805.59;5061010;28;20028;-55
2022/09/18 10:55:19;;;;;;;7.32;3.85;;;;;;;-145.01;100.00;64805.59;5051477;28;20031;-55
2022/09/18 10:57:47;;;;;;;12.40;3.70;;;;;;;-145.01;100.00;64805.59;5058365;28;20111;-55
2022/09/18 11:00:19;;;;;;;6.47;3.30;;;;;;;-145.01;100.00;64805.59;5056577;28;20104;-54
2022/09/18 11:02:56;;;;;;;8.15;3.45;;;;;;;-145.01;100.00;64805.59;5058406;28;20483;-55
2022/09/18 11:05:25;;;;;;;6.38;3.20;;;;;;;-145.01;100.00;64805.59;5055507;28;20099;-54
2022/09/18 11:07:53;;;;;;;5.38;3.03;;;;;;;-145.01;100.00;64805.59;5050701;28;20029;-55
2022/09/18 11:10:20;;;;;;;7.10;3.22;;;;;;;-145.01;100.00;64805.59;5051715;28;20116;-55
2022/09/18 11:12:53;;;;;;;10.60;3.10;;;;;;;-145.01;100.00;64805.59;5057424;28;20101;-55
2022/09/18 11:15:27;;;;;;;6.82;3.00;;;;;;;-145.01;100.00;64805.59;5034564;28;20047;-54
2022/09/18 11:17:54;;;;;;;8.15;3.47;;;;;;;-145.01;100.00;64805.59;5041408;28;20368;-55
2022/09/18 11:20:30;;;;;;;7.38;3.42;;;;;;;-145.01;100.00;64805.59;5057250;28;20109;-55
2022/09/18 11:23:14;;;;;;;9.88;3.42;;;;;;;-145.01;100.00;64805.59;5055835;28;20032;-55